Time,TemperatureF,DewpointF,PressureIn,WindDirection,WindDirectionDegrees,WindSpeedMPH,WindSpeedGustMPH,Humidity,HourlyPrecipIn,Conditions,Clouds,dailyrainin,SolarRadiationWatts/m^2,SoftwareType,DateUTC
2013-04-07 00:22:00,57.0,46.0,-100.00,SSE,150,9.0,14.0,67,0.00,,,0.00,0.000000,,2013-04-07 10:22:00,
2013-04-07 00:33:00,57.0,46.0,-100.00,SSE,150,9.0,14.0,67,0.00,,,0.00,0.000000,,2013-04-07 10:33:00,
2013-04-07 00:42:00,57.0,46.0,-100.00,SSE,150,9.0,14.0,67,0.00,,,0.00,0.000000,,2013-04-07 10:42:00,
2013-04-07 00:52:00,57.0,46.0,-100.00,SSE,150,9.0,14.0,67,0.00,,,0.00,0.000000,,2013-04-07 10:52:00,
2013-04-07 01:22:00,58.0,42.0,-100.00,SE,137,8.0,17.0,55,0.00,,,0.00,0.000000,,2013-04-07 11:22:00,
2013-04-07 01:32:00,58.0,42.0,-100.00,SE,137,8.0,17.0,55,0.00,,,0.00,0.000000,,2013-04-07 11:32:00,
2013-04-07 01:42:00,58.0,42.0,-100.00,SE,137,8.0,17.0,55,0.00,,,0.00,0.000000,,2013-04-07 11:42:00,
2013-04-07 01:52:00,58.0,42.0,-100.00,SE,137,8.0,17.0,55,0.00,,,0.00,0.000000,,2013-04-07 11:52:00,
2013-04-07 02:22:00,58.0,41.0,-100.00,SSE,155,9.0,16.0,54,0.00,,,0.00,0.000000,,2013-04-07 12:22:00,
2013-04-07 02:33:00,58.0,41.0,-100.00,SSE,155,9.0,16.0,54,0.00,,,0.00,0.000000,,2013-04-07 12:33:00,
2013-04-07 02:42:00,58.0,41.0,-100.00,SSE,155,9.0,16.0,54,0.00,,,0.00,0.000000,,2013-04-07 12:42:00,
2013-04-07 02:52:00,58.0,41.0,-100.00,SSE,155,9.0,16.0,54,0.00,,,0.00,0.000000,,2013-04-07 12:52:00,
2013-04-07 03:22:00,57.0,41.0,-100.00,SSE,166,6.0,16.0,56,0.00,,,0.00,0.000000,,2013-04-07 13:22:00,
2013-04-07 03:32:00,57.0,41.0,-100.00,SSE,166,6.0,16.0,56,0.00,,,0.00,0.000000,,2013-04-07 13:32:00,
2013-04-07 03:42:00,57.0,41.0,-100.00,SSE,166,6.0,16.0,56,0.00,,,0.00,0.000000,,2013-04-07 13:42:00,
2013-04-07 03:52:00,57.0,41.0,-100.00,SSE,166,6.0,16.0,56,0.00,,,0.00,0.000000,,2013-04-07 13:52:00,
2013-04-07 04:23:00,57.0,41.0,-100.00,South,177,7.0,15.0,54,0.00,,,0.00,0.000000,,2013-04-07 14:23:00,
2013-04-07 04:32:00,57.0,41.0,-100.00,South,177,7.0,15.0,54,0.00,,,0.00,0.000000,,2013-04-07 14:32:00,
2013-04-07 04:43:00,57.0,41.0,-100.00,South,177,7.0,15.0,54,0.00,,,0.00,0.000000,,2013-04-07 14:43:00,
2013-04-07 04:53:00,57.0,41.0,-100.00,South,177,7.0,15.0,54,0.00,,,0.00,0.000000,,2013-04-07 14:53:00,
2013-04-07 05:22:00,50.0,39.0,-100.00,SE,136,4.0,11.0,66,0.00,,,0.00,0.000000,,2013-04-07 15:22:00,
2013-04-07 05:33:00,50.0,39.0,-100.00,SE,136,4.0,11.0,66,0.00,,,0.00,0.000000,,2013-04-07 15:33:00,
2013-04-07 05:43:00,50.0,39.0,-100.00,SE,136,4.0,11.0,66,0.00,,,0.00,0.000000,,2013-04-07 15:43:00,
2013-04-07 05:53:00,50.0,39.0,-100.00,SE,136,4.0,11.0,66,0.00,,,0.00,0.000000,,2013-04-07 15:53:00,
2013-04-07 06:23:00,53.0,32.0,-100.00,SE,142,5.0,9.0,44,0.00,,,0.00,0.000000,,2013-04-07 16:23:00,
2013-04-07 06:33:00,53.0,32.0,-100.00,SE,142,5.0,9.0,44,0.00,,,0.00,0.000000,,2013-04-07 16:33:00,
2013-04-07 06:42:00,53.0,32.0,-100.00,SE,142,5.0,9.0,44,0.00,,,0.00,0.000000,,2013-04-07 16:42:00,
2013-04-07 06:52:00,53.0,32.0,-100.00,SE,142,5.0,9.0,44,0.00,,,0.00,0.000000,,2013-04-07 16:52:00,
2013-04-07 07:22:00,54.0,33.0,-100.00,ESE,111,6.0,7.0,44,0.00,,,0.00,57.000000,,2013-04-07 17:22:00,
2013-04-07 07:32:00,54.0,33.0,-100.00,ESE,111,6.0,7.0,44,0.00,,,0.00,57.000000,,2013-04-07 17:32:00,
2013-04-07 07:42:00,54.0,33.0,-100.00,ESE,111,6.0,7.0,44,0.00,,,0.00,57.000000,,2013-04-07 17:42:00,
2013-04-07 07:52:00,54.0,33.0,-100.00,ESE,111,6.0,7.0,44,0.00,,,0.00,57.000000,,2013-04-07 17:52:00,
2013-04-07 08:22:00,69.0,34.0,-100.00,East,94,8.0,16.0,27,0.00,,,0.00,331.000000,,2013-04-07 18:22:00,
2013-04-07 08:32:00,69.0,34.0,-100.00,East,94,8.0,16.0,27,0.00,,,0.00,331.000000,,2013-04-07 18:32:00,
2013-04-07 08:42:00,69.0,34.0,-100.00,East,94,8.0,16.0,27,0.00,,,0.00,331.000000,,2013-04-07 18:42:00,
2013-04-07 08:52:00,69.0,34.0,-100.00,East,94,8.0,16.0,27,0.00,,,0.00,331.000000,,2013-04-07 18:52:00,
2013-04-07 09:22:00,72.0,34.0,-100.00,East,81,12.0,24.0,25,0.00,,,0.00,603.000000,,2013-04-07 19:22:00,
2013-04-07 09:32:00,72.0,34.0,-100.00,East,81,12.0,24.0,25,0.00,,,0.00,603.000000,,2013-04-07 19:32:00,
2013-04-07 09:42:00,72.0,34.0,-100.00,East,81,12.0,24.0,25,0.00,,,0.00,603.000000,,2013-04-07 19:42:00,
2013-04-07 09:52:00,72.0,34.0,-100.00,East,81,12.0,24.0,25,0.00,,,0.00,603.000000,,2013-04-07 19:52:00,
2013-04-07 10:22:00,73.0,30.0,-100.00,East,79,11.0,23.0,20,0.00,,,0.00,827.000000,,2013-04-07 20:22:00,
2013-04-07 10:32:00,73.0,30.0,-100.00,East,79,11.0,23.0,20,0.00,,,0.00,827.000000,,2013-04-07 20:32:00,
2013-04-07 10:42:00,73.0,30.0,-100.00,East,79,11.0,23.0,20,0.00,,,0.00,827.000000,,2013-04-07 20:42:00,
2013-04-07 10:52:00,73.0,30.0,-100.00,East,79,11.0,23.0,20,0.00,,,0.00,827.000000,,2013-04-07 20:52:00,
2013-04-07 11:22:00,71.0,47.0,-100.00,NNW,336,10.0,22.0,43,0.00,,,-99.99,971.000000,,2013-04-07 21:22:00,
2013-04-07 11:33:00,71.0,47.0,-100.00,NNW,336,10.0,22.0,43,0.00,,,-99.99,971.000000,,2013-04-07 21:33:00,
2013-04-07 11:43:00,71.0,47.0,-100.00,NNW,336,10.0,22.0,43,0.00,,,-99.99,971.000000,,2013-04-07 21:43:00,
2013-04-07 11:52:00,71.0,47.0,-100.00,NNW,336,10.0,22.0,43,0.00,,,-99.99,971.000000,,2013-04-07 21:52:00,
2013-04-07 12:23:00,70.0,54.0,-100.00,NNW,329,11.0,24.0,56,0.00,,,0.00,1105.000000,,2013-04-07 22:23:00,
2013-04-07 12:33:00,70.0,54.0,-100.00,NNW,329,11.0,24.0,56,0.00,,,0.00,1105.000000,,2013-04-07 22:33:00,
2013-04-07 12:43:00,70.0,54.0,-100.00,NNW,329,11.0,24.0,56,0.00,,,0.00,1105.000000,,2013-04-07 22:43:00,
2013-04-07 12:52:00,70.0,54.0,-100.00,NNW,329,11.0,24.0,56,0.00,,,0.00,1105.000000,,2013-04-07 22:52:00,
2013-04-07 13:22:00,69.0,54.0,-100.00,NNW,339,11.0,22.0,59,0.00,,,0.00,1077.000000,,2013-04-07 23:22:00,
2013-04-07 13:32:00,69.0,54.0,-100.00,NNW,339,11.0,22.0,59,0.00,,,0.00,1077.000000,,2013-04-07 23:32:00,
2013-04-07 13:42:00,69.0,54.0,-100.00,NNW,339,11.0,22.0,59,0.00,,,0.00,1077.000000,,2013-04-07 23:42:00,
2013-04-07 13:52:00,69.0,54.0,-100.00,NNW,339,11.0,22.0,59,0.00,,,0.00,1077.000000,,2013-04-07 23:52:00,
2013-04-07 14:22:00,71.0,56.0,-100.00,North,351,10.0,23.0,59,0.00,,,0.00,1096.000000,,2013-04-08 00:22:00,
2013-04-07 14:32:00,71.0,56.0,-100.00,North,351,10.0,23.0,59,0.00,,,0.00,1096.000000,,2013-04-08 00:32:00,
2013-04-07 14:42:00,71.0,56.0,-100.00,North,351,10.0,23.0,59,0.00,,,0.00,1096.000000,,2013-04-08 00:42:00,
2013-04-07 14:52:00,71.0,56.0,-100.00,North,351,10.0,23.0,59,0.00,,,0.00,1096.000000,,2013-04-08 00:52:00,
2013-04-07 15:22:00,68.0,57.0,-100.00,North,351,11.0,23.0,69,0.00,,,0.00,843.000000,,2013-04-08 01:22:00,
2013-04-07 15:33:00,68.0,57.0,-100.00,North,351,11.0,23.0,69,0.00,,,0.00,843.000000,,2013-04-08 01:33:00,
2013-04-07 15:42:00,68.0,57.0,-100.00,North,351,11.0,23.0,69,0.00,,,0.00,843.000000,,2013-04-08 01:42:00,
2013-04-07 15:53:00,68.0,57.0,-100.00,North,351,11.0,23.0,69,0.00,,,0.00,843.000000,,2013-04-08 01:53:00,
2013-04-07 16:22:00,63.0,57.0,-100.00,North,350,7.0,20.0,80,0.00,,,0.00,323.000000,,2013-04-08 02:22:00,
2013-04-07 16:33:00,63.0,57.0,-100.00,North,350,7.0,20.0,80,0.00,,,0.00,323.000000,,2013-04-08 02:33:00,
2013-04-07 16:45:00,63.0,57.0,-100.00,North,350,7.0,20.0,80,0.00,,,0.00,323.000000,,2013-04-08 02:45:00,
2013-04-07 16:52:00,63.0,57.0,-100.00,North,350,7.0,20.0,80,0.00,,,0.00,323.000000,,2013-04-08 02:52:00,
2013-04-07 17:23:00,65.0,57.0,-100.00,North,356,7.0,16.0,75,0.00,,,0.00,211.000000,,2013-04-08 03:23:00,
2013-04-07 17:33:00,65.0,57.0,-100.00,North,356,7.0,16.0,75,0.00,,,0.00,211.000000,,2013-04-08 03:33:00,
2013-04-07 17:46:00,65.0,57.0,-100.00,North,356,7.0,16.0,75,0.00,,,0.00,211.000000,,2013-04-08 03:46:00,
2013-04-07 17:53:00,65.0,57.0,-100.00,North,356,7.0,16.0,75,0.00,,,0.00,211.000000,,2013-04-08 03:53:00,
2013-04-07 18:23:00,61.0,55.0,-100.00,NNE,16,8.0,13.0,81,0.00,,,0.00,143.000000,,2013-04-08 04:23:00,
2013-04-07 18:33:00,61.0,55.0,-100.00,NNE,16,8.0,13.0,81,0.00,,,0.00,143.000000,,2013-04-08 04:33:00,
2013-04-07 18:43:00,61.0,55.0,-100.00,NNE,16,8.0,13.0,81,0.00,,,0.00,143.000000,,2013-04-08 04:43:00,
2013-04-07 18:52:00,61.0,55.0,-100.00,NNE,16,8.0,13.0,81,0.00,,,0.00,143.000000,,2013-04-08 04:52:00,
2013-04-07 19:32:00,57.0,54.0,-100.00,North,11,7.0,16.0,91,0.00,,,0.00,35.000000,,2013-04-08 05:32:00,
2013-04-07 19:42:00,57.0,54.0,-100.00,North,11,7.0,16.0,91,0.00,,,0.00,35.000000,,2013-04-08 05:42:00,
2013-04-07 19:51:00,57.0,54.0,-100.00,North,11,7.0,16.0,91,0.00,,,0.00,35.000000,,2013-04-08 05:51:00,
2013-04-07 20:22:00,57.0,56.0,-100.00,NNE,14,3.0,11.0,95,0.00,,,0.00,0.000000,,2013-04-08 06:22:00,
2013-04-07 20:32:00,57.0,56.0,-100.00,NNE,14,3.0,11.0,95,0.00,,,0.00,0.000000,,2013-04-08 06:32:00,
2013-04-07 20:42:00,57.0,56.0,-100.00,NNE,14,3.0,11.0,95,0.00,,,0.00,0.000000,,2013-04-08 06:42:00,
2013-04-07 20:52:00,57.0,56.0,-100.00,NNE,14,3.0,11.0,95,0.00,,,0.00,0.000000,,2013-04-08 06:52:00,
2013-04-07 21:22:00,52.0,51.0,-100.00,SW,219,2.0,6.0,97,0.00,,,0.00,0.000000,,2013-04-08 07:22:00,
2013-04-07 21:32:00,52.0,51.0,-100.00,SW,219,2.0,6.0,97,0.00,,,0.00,0.000000,,2013-04-08 07:32:00,
2013-04-07 21:42:00,52.0,51.0,-100.00,SW,219,2.0,6.0,97,0.00,,,0.00,0.000000,,2013-04-08 07:42:00,
2013-04-07 21:52:00,52.0,51.0,-100.00,SW,219,2.0,6.0,97,0.00,,,0.00,0.000000,,2013-04-08 07:52:00,
2013-04-07 22:32:00,50.0,49.0,-100.00,South,185,6.0,9.0,98,0.00,,,0.00,0.000000,,2013-04-08 08:32:00,
2013-04-07 22:42:00,50.0,49.0,-100.00,South,185,6.0,9.0,98,0.00,,,0.00,0.000000,,2013-04-08 08:42:00,
2013-04-07 22:52:00,50.0,49.0,-100.00,South,185,6.0,9.0,98,0.00,,,0.00,0.000000,,2013-04-08 08:52:00,
2013-04-07 23:22:00,48.0,42.0,-100.00,SSE,161,3.0,14.0,79,0.00,,,0.00,0.000000,,2013-04-08 09:22:00,
2013-04-07 23:33:00,48.0,42.0,-100.00,SSE,161,3.0,14.0,79,0.00,,,0.00,0.000000,,2013-04-08 09:33:00,
2013-04-07 23:42:00,48.0,42.0,-100.00,SSE,161,3.0,14.0,79,0.00,,,0.00,0.000000,,2013-04-08 09:42:00,
2013-04-07 23:52:00,48.0,42.0,-100.00,SSE,161,3.0,14.0,79,0.00,,,0.00,0.000000,,2013-04-08 09:52:00,